Time;durP1;ratioP1;P1;durP2;ratioP2;P2;SDS_P1;SDS_P2;PMS_P1;PMS_P2;Temp;Humidity;BMP_temperature;BMP_pressure;BME280_temperature;BME280_humidity;BME280_pressure;Samples;Min_cycle;Max_cycle;Signal;HPM_P1;HPM_P2
2022/07/04 00:01:04;;;;;;;;;;;21.30;99.90;;;;;;5103573;28;20179;-66
2022/07/04 00:03:31;;;;;;;;;;;21.30;99.90;;;;;;5099610;28;19920;-66
2022/07/04 00:05:57;;;;;;;;;;;21.30;99.90;;;;;;5088475;28;19920;-66
2022/07/04 00:08:24;;;;;;;;;;;21.30;99.90;;;;;;5095611;28;19920;-66
2022/07/04 00:10:52;;;;;;;;;;;21.30;99.90;;;;;;5102941;28;19947;-67
2022/07/04 00:13:19;;;;;;;;;;;21.30;99.90;;;;;;5100392;28;19992;-66
2022/07/04 00:15:45;;;;;;;;;;;21.30;99.90;;;;;;5086780;28;19964;-66
2022/07/04 00:18:12;;;;;;;;;;;21.30;99.90;;;;;;5104283;28;19920;-66
2022/07/04 00:20:39;;;;;;;;;;;21.20;99.90;;;;;;5104369;28;19958;-66
2022/07/04 00:23:05;;;;;;;;;;;21.20;99.90;;;;;;5103584;28;19951;-66
2022/07/04 00:25:32;;;;;;;;;;;21.20;99.90;;;;;;5104150;28;19920;-66
2022/07/04 00:28:00;;;;;;;;;;;21.20;99.90;;;;;;5103849;28;20207;-67
2022/07/04 00:30:27;;;;;;;;;;;21.10;99.90;;;;;;5103927;28;19929;-66
2022/07/04 00:32:54;;;;;;;;;;;21.10;99.90;;;;;;5103396;28;19981;-65
2022/07/04 00:35:20;;;;;;;;;;;21.10;99.90;;;;;;5103555;28;19920;-66
2022/07/04 00:37:47;;;;;;;;;;;21.10;99.90;;;;;;5103807;28;19920;-66
2022/07/04 00:40:14;;;;;;;;;;;21.10;99.90;;;;;;5103532;28;19955;-67
2022/07/04 00:42:40;;;;;;;;;;;21.00;99.90;;;;;;5102946;28;20219;-66
2022/07/04 00:45:09;;;;;;;;;;;20.90;99.90;;;;;;5103414;28;20174;-66
2022/07/04 00:47:36;;;;;;;;;;;20.90;99.90;;;;;;5101013;28;20120;-66
2022/07/04 00:50:03;;;;;;;;;;;20.90;99.90;;;;;;5099834;28;19920;-66
2022/07/04 00:52:30;;;;;;;;;;;20.80;99.90;;;;;;5099641;28;19936;-66
2022/07/04 00:54:56;;;;;;;;;;;20.70;99.90;;;;;;5092380;28;19928;-66
2022/07/04 00:57:23;;;;;;;;;;;20.50;99.90;;;;;;5083384;28;20230;-66
2022/07/04 00:59:50;;;;;;;;;;;20.40;99.90;;;;;;5096167;28;19920;-66
2022/07/04 01:02:18;;;;;;;;;;;20.30;99.90;;;;;;5103135;28;19948;-66
2022/07/04 01:04:44;;;;;;;;;;;20.30;99.90;;;;;;5103501;28;19934;-66
2022/07/04 01:07:12;;;;;;;;;;;20.30;99.90;;;;;;5103751;28;19983;-66
2022/07/04 01:09:38;;;;;;;;;;;20.30;99.90;;;;;;5103303;28;20220;-66
2022/07/04 01:12:06;;;;;;;;;;;20.30;99.90;;;;;;5103219;28;20245;-66
2022/07/04 01:14:32;;;;;;;;;;;20.40;99.90;;;;;;5102972;28;19928;-65
2022/07/04 01:16:59;;;;;;;;;;;20.40;99.90;;;;;;5103153;28;19920;-66
2022/07/04 01:19:27;;;;;;;;;;;20.50;99.90;;;;;;5103291;28;19924;-66
2022/07/04 01:21:55;;;;;;;;;;;20.40;99.90;;;;;;5103670;28;19982;-67
2022/07/04 01:24:22;;;;;;;;;;;20.50;99.90;;;;;;5102572;28;19920;-66
2022/07/04 01:26:49;;;;;;;;;;;20.50;99.90;;;;;;5103385;28;19924;-66
2022/07/04 01:29:17;;;;;;;;;;;20.50;99.90;;;;;;5103007;28;19920;-66
2022/07/04 01:31:44;;;;;;;;;;;20.50;99.90;;;;;;5103192;28;19920;-65
2022/07/04 01:34:10;;;;;;;;;;;20.50;99.90;;;;;;5102751;28;19920;-66
2022/07/04 01:36:37;;;;;;;;;;;20.50;99.90;;;;;;5103424;28;19920;-67
2022/07/04 01:39:05;;;;;;;;;;;20.40;99.90;;;;;;5103201;28;19955;-65
2022/07/04 01:41:34;;;;;;;;;;;20.40;99.90;;;;;;5100687;28;19985;-66
2022/07/04 01:44:00;;;;;;;;;;;20.40;99.90;;;;;;5105871;28;19927;-66
2022/07/04 01:46:27;;;;;;;;;;;20.40;99.90;;;;;;5107048;28;19970;-66
2022/07/04 01:48:54;;;;;;;;;;;20.30;99.90;;;;;;5106814;28;19947;-66
2022/07/04 01:51:20;;;;;;;;;;;20.40;99.90;;;;;;5106741;28;19927;-67
2022/07/04 01:53:47;;;;;;;;;;;20.40;99.90;;;;;;5106398;28;20107;-66
2022/07/04 01:56:15;;;;;;;;;;;20.40;99.90;;;;;;5106879;28;19919;-66
2022/07/04 01:58:42;;;;;;;;;;;20.30;99.90;;;;;;5096012;28;19948;-66
2022/07/04 02:03:52;;;;;;;;;;;20.20;99.90;;;;;;5105353;28;19923;-66
2022/07/04 02:06:19;;;;;;;;;;;20.20;99.90;;;;;;5105966;28;19959;-66
2022/07/04 02:13:00;;;;;;;;;;;20.00;99.90;;;;;;5085715;28;19923;-66
2022/07/04 02:14:17;;;;;;;;;;;19.90;99.90;;;;;;5099371;28;19927;-67
2022/07/04 02:16:44;;;;;;;;;;;19.90;99.90;;;;;;5088521;28;19917;-66
2022/07/04 02:19:11;;;;;;;;;;;19.90;99.90;;;;;;5090808;28;19951;-66
2022/07/04 02:21:38;;;;;;;;;;;19.90;99.90;;;;;;5095067;28;19955;-66
2022/07/04 02:24:05;;;;;;;;;;;19.90;99.90;;;;;;5105676;28;19920;-66
2022/07/04 02:26:33;;;;;;;;;;;19.80;99.90;;;;;;5105918;28;19920;-66
2022/07/04 02:28:59;;;;;;;;;;;19.80;99.90;;;;;;5106424;28;19920;-66
2022/07/04 02:31:26;;;;;;;;;;;19.80;99.90;;;;;;5106031;28;19965;-66
2022/07/04 02:33:53;;;;;;;;;;;19.80;99.90;;;;;;5105531;28;19920;-66
2022/07/04 02:36:20;;;;;;;;;;;19.70;99.90;;;;;;5106308;28;19951;-66
2022/07/04 02:38:46;;;;;;;;;;;19.70;99.90;;;;;;5106045;28;20191;-66
2022/07/04 02:41:15;;;;;;;;;;;19.70;99.90;;;;;;5103204;28;20160;-66
2022/07/04 02:43:43;;;;;;;;;;;19.60;99.90;;;;;;5105468;28;19920;-66
2022/07/04 02:46:10;;;;;;;;;;;19.60;99.90;;;;;;5105747;28;19959;-66
2022/07/04 02:48:37;;;;;;;;;;;19.60;99.90;;;;;;5105851;28;20234;-66
2022/07/04 02:51:04;;;;;;;;;;;19.50;99.90;;;;;;5105980;28;19920;-66
2022/07/04 02:53:31;;;;;;;;;;;19.40;99.90;;;;;;5105078;28;19955;-66
2022/07/04 02:55:57;;;;;;;;;;;19.40;99.90;;;;;;5105740;28;19954;-66
2022/07/04 02:58:24;;;;;;;;;;;19.40;99.90;;;;;;5105775;28;19979;-66
2022/07/04 03:00:52;;;;;;;;;;;19.30;99.90;;;;;;5105778;28;19962;-66
2022/07/04 03:03:19;;;;;;;;;;;19.40;99.90;;;;;;5104927;28;19927;-66
2022/07/04 03:05:45;;;;;;;;;;;19.30;99.90;;;;;;5105340;28;19952;-66
2022/07/04 03:08:12;;;;;;;;;;;19.30;99.90;;;;;;5105793;28;20217;-66
2022/07/04 03:10:39;;;;;;;;;;;19.20;99.90;;;;;;5105378;28;19919;-66
2022/07/04 03:13:05;;;;;;;;;;;19.10;99.90;;;;;;5084768;28;19952;-66
2022/07/04 03:15:32;;;;;;;;;;;19.10;99.90;;;;;;5089151;28;20127;-66
2022/07/04 03:18:00;;;;;;;;;;;19.10;99.90;;;;;;5105488;28;19959;-66
2022/07/04 03:20:27;;;;;;;;;;;19.20;99.90;;;;;;5105107;28;19963;-66
2022/07/04 03:22:54;;;;;;;;;;;19.10;99.90;;;;;;5104772;28;19958;-66
2022/07/04 03:25:21;;;;;;;;;;;19.10;99.90;;;;;;5104844;28;19920;-66
2022/07/04 03:27:47;;;;;;;;;;;19.10;99.90;;;;;;5105493;28;19958;-66
2022/07/04 03:30:14;;;;;;;;;;;19.10;99.90;;;;;;5104939;28;19920;-65
2022/07/04 03:32:41;;;;;;;;;;;19.10;99.90;;;;;;5104357;28;19986;-66
2022/07/04 03:35:09;;;;;;;;;;;19.00;99.90;;;;;;5104917;28;19920;-66
2022/07/04 03:37:36;;;;;;;;;;;19.00;99.90;;;;;;5104948;28;19924;-66
2022/07/04 03:40:04;;;;;;;;;;;19.00;99.90;;;;;;5102341;28;19947;-66
2022/07/04 03:42:31;;;;;;;;;;;19.00;99.90;;;;;;5104107;28;19989;-66
2022/07/04 03:44:57;;;;;;;;;;;19.00;99.90;;;;;;5104631;28;19944;-66
2022/07/04 03:47:24;;;;;;;;;;;19.00;99.90;;;;;;5104883;28;20158;-65
2022/07/04 03:49:51;;;;;;;;;;;19.00;99.90;;;;;;5104495;28;19920;-66
2022/07/04 03:52:19;;;;;;;;;;;18.90;99.90;;;;;;5104428;28;19959;-66
2022/07/04 03:54:46;;;;;;;;;;;19.00;99.90;;;;;;5104640;28;20211;-66
2022/07/04 03:57:12;;;;;;;;;;;19.00;99.90;;;;;;5104871;28;19983;-66
2022/07/04 03:59:39;;;;;;;;;;;18.90;99.90;;;;;;5104446;28;19962;-66
2022/07/04 04:02:06;;;;;;;;;;;18.90;99.90;;;;;;5104466;28;19920;-66
2022/07/04 04:07:16;;;;;;;;;;;18.90;99.90;;;;;;5103972;28;19927;-65
2022/07/04 04:09:44;;;;;;;;;;;18.80;99.90;;;;;;5104438;28;19986;-66
2022/07/04 04:12:11;;;;;;;;;;;18.90;99.90;;;;;;5103991;28;19927;-67
2022/07/04 04:14:38;;;;;;;;;;;18.80;99.90;;;;;;5098908;28;19947;-66
2022/07/04 04:17:04;;;;;;;;;;;18.80;99.90;;;;;;5095407;28;20179;-65
2022/07/04 04:19:31;;;;;;;;;;;18.80;99.90;;;;;;5104063;28;19970;-66
2022/07/04 04:21:59;;;;;;;;;;;18.80;99.90;;;;;;5102733;28;19987;-66
2022/07/04 04:24:26;;;;;;;;;;;18.80;99.90;;;;;;5103374;28;20330;-66
2022/07/04 04:26:54;;;;;;;;;;;18.80;99.90;;;;;;5103866;28;19995;-66
2022/07/04 04:29:20;;;;;;;;;;;18.80;99.90;;;;;;5103957;28;19927;-66
2022/07/04 04:31:47;;;;;;;;;;;18.80;99.90;;;;;;5103814;28;19927;-66
2022/07/04 04:34:14;;;;;;;;;;;18.80;99.90;;;;;;5103345;28;20029;-66
2022/07/04 04:36:40;;;;;;;;;;;18.80;99.90;;;;;;5103964;28;19951;-66
2022/07/04 04:39:07;;;;;;;;;;;18.80;99.90;;;;;;5103918;28;19920;-66
2022/07/04 04:41:34;;;;;;;;;;;18.80;99.90;;;;;;5101218;28;19991;-66
2022/07/04 04:44:02;;;;;;;;;;;18.80;99.90;;;;;;5103030;28;19944;-66
2022/07/04 04:46:28;;;;;;;;;;;18.80;99.90;;;;;;5103561;28;19990;-66
2022/07/04 04:48:55;;;;;;;;;;;18.90;99.90;;;;;;5103915;28;19927;-66
2022/07/04 04:51:22;;;;;;;;;;;18.80;99.90;;;;;;5103877;28;19963;-66
2022/07/04 04:53:48;;;;;;;;;;;18.80;99.90;;;;;;5103135;28;19983;-66
2022/07/04 04:56:15;;;;;;;;;;;18.80;99.90;;;;;;5103769;28;19920;-66
2022/07/04 04:58:42;;;;;;;;;;;18.80;99.90;;;;;;5103341;28;19984;-66
2022/07/04 05:01:10;;;;;;;;;;;18.80;99.90;;;;;;5103522;28;19947;-65
2022/07/04 05:03:36;;;;;;;;;;;18.80;99.90;;;;;;5102976;28;19947;-66
2022/07/04 05:06:03;;;;;;;;;;;18.80;99.90;;;;;;5103157;28;19948;-70
2022/07/04 05:08:30;;;;;;;;;;;18.80;99.90;;;;;;5103653;28;20449;-66
2022/07/04 05:10:56;;;;;;;;;;;18.80;99.90;;;;;;5103540;28;19983;-66
2022/07/04 05:13:23;;;;;;;;;;;18.80;99.90;;;;;;5102879;28;19988;-66
2022/07/04 05:15:51;;;;;;;;;;;18.80;99.90;;;;;;5103077;28;19927;-66
2022/07/04 05:18:19;;;;;;;;;;;18.80;99.90;;;;;;5104650;28;19965;-66
2022/07/04 05:20:45;;;;;;;;;;;18.80;99.90;;;;;;5101575;22;19920;-68
2022/07/04 05:23:12;;;;;;;;;;;18.80;99.90;;;;;;5086300;28;19947;-69
2022/07/04 05:25:39;;;;;;;;;;;18.80;99.90;;;;;;5086757;28;20261;-70
2022/07/04 05:28:06;;;;;;;;;;;18.90;99.90;;;;;;5086731;28;19988;-70
2022/07/04 05:30:33;;;;;;;;;;;18.90;99.90;;;;;;5086741;28;19920;-70
2022/07/04 05:33:01;;;;;;;;;;;19.00;99.90;;;;;;5085945;28;19920;-70
2022/07/04 05:35:30;;;;;;;;;;;19.00;99.90;;;;;;5086484;28;19920;-70
2022/07/04 05:37:56;;;;;;;;;;;19.00;99.90;;;;;;5086313;28;19920;-70
2022/07/04 05:40:23;;;;;;;;;;;19.00;99.90;;;;;;5084363;28;19921;-70
2022/07/04 05:42:50;;;;;;;;;;;19.00;99.90;;;;;;5086050;28;20136;-70
2022/07/04 05:45:16;;;;;;;;;;;19.00;99.90;;;;;;5086969;28;19955;-71
2022/07/04 05:47:44;;;;;;;;;;;19.00;99.90;;;;;;5085941;28;19971;-74
2022/07/04 05:50:10;;;;;;;;;;;19.00;99.90;;;;;;5086132;28;19921;-70
2022/07/04 05:52:38;;;;;;;;;;;19.10;99.90;;;;;;5085427;28;19963;-70
2022/07/04 05:55:06;;;;;;;;;;;19.20;99.90;;;;;;5086515;28;19920;-70
2022/07/04 05:57:33;;;;;;;;;;;19.20;99.90;;;;;;5085512;28;19927;-70
2022/07/04 05:59:59;;;;;;;;;;;19.30;99.90;;;;;;5085882;28;19920;-70
2022/07/04 06:02:26;;;;;;;;;;;19.40;99.90;;;;;;5081110;28;19956;-70
2022/07/04 06:04:53;;;;;;;;;;;19.50;99.90;;;;;;5085843;28;20227;-70
2022/07/04 06:07:19;;;;;;;;;;;19.50;99.90;;;;;;5088192;28;19951;-70
2022/07/04 06:09:47;;;;;;;;;;;19.50;99.90;;;;;;5085889;28;19928;-70
2022/07/04 06:12:14;;;;;;;;;;;19.50;99.90;;;;;;5084459;28;20231;-70
2022/07/04 06:14:41;;;;;;;;;;;19.50;99.90;;;;;;5085853;28;19920;-69
2022/07/04 06:17:07;;;;;;;;;;;19.50;99.90;;;;;;5081283;28;20261;-70
2022/07/04 06:19:34;;;;;;;;;;;19.50;99.90;;;;;;5085308;28;19964;-70
2022/07/04 06:22:01;;;;;;;;;;;19.60;99.90;;;;;;5085689;28;19927;-70
2022/07/04 06:24:27;;;;;;;;;;;19.70;99.90;;;;;;5085483;28;19963;-69
2022/07/04 06:26:55;;;;;;;;;;;19.70;99.90;;;;;;5085704;28;19968;-69
2022/07/04 06:29:22;;;;;;;;;;;19.80;99.90;;;;;;5085398;28;19921;-69
2022/07/04 06:31:49;;;;;;;;;;;19.80;99.90;;;;;;5085403;28;19951;-70
2022/07/04 06:37:00;;;;;;;;;;;19.90;99.90;;;;;;5078778;28;19984;-70
2022/07/04 06:39:26;;;;;;;;;;;19.90;99.90;;;;;;5085001;28;19928;-69
2022/07/04 06:41:53;;;;;;;;;;;20.00;99.90;;;;;;5085158;28;20203;-69
2022/07/04 06:44:21;;;;;;;;;;;20.10;99.90;;;;;;5084502;28;19944;-69
2022/07/04 06:46:48;;;;;;;;;;;20.20;99.90;;;;;;5066098;28;19960;-69
2022/07/04 06:49:14;;;;;;;;;;;20.30;99.90;;;;;;5079472;28;19926;-69
2022/07/04 06:51:41;;;;;;;;;;;20.30;99.90;;;;;;5075950;28;19928;-69
2022/07/04 06:54:08;;;;;;;;;;;20.40;99.90;;;;;;5085181;28;19920;-70
2022/07/04 06:56:34;;;;;;;;;;;20.40;99.90;;;;;;5091998;28;19955;-69
2022/07/04 06:59:03;;;;;;;;;;;20.50;99.90;;;;;;5100752;28;19952;-69
2022/07/04 07:01:31;;;;;;;;;;;20.60;99.90;;;;;;5072578;28;19958;-70
2022/07/04 07:03:57;;;;;;;;;;;20.70;99.90;;;;;;5084166;28;19959;-71
2022/07/04 07:06:24;;;;;;;;;;;20.60;99.90;;;;;;5084744;28;19960;-69
2022/07/04 07:08:51;;;;;;;;;;;20.60;99.90;;;;;;5084908;28;19921;-69
2022/07/04 07:11:19;;;;;;;;;;;20.60;99.90;;;;;;5084916;28;19927;-69
2022/07/04 07:13:48;;;;;;;;;;;20.60;99.90;;;;;;5083880;28;19920;-69
2022/07/04 07:16:15;;;;;;;;;;;20.60;99.90;;;;;;5084544;28;19966;-69
2022/07/04 07:18:44;;;;;;;;;;;20.70;99.90;;;;;;5083271;28;19958;-69
2022/07/04 07:21:10;;;;;;;;;;;20.80;99.90;;;;;;5082906;28;19980;-69
2022/07/04 07:23:38;;;;;;;;;;;20.80;99.90;;;;;;5079952;28;20220;-69
2022/07/04 07:26:05;;;;;;;;;;;20.90;99.90;;;;;;5088710;28;20175;-69
2022/07/04 07:28:31;;;;;;;;;;;20.80;99.90;;;;;;5084793;28;19925;-69
2022/07/04 07:30:58;;;;;;;;;;;20.80;99.90;;;;;;5084818;28;19948;-70
2022/07/04 07:33:25;;;;;;;;;;;20.80;99.90;;;;;;5084013;28;19921;-68
2022/07/04 07:35:54;;;;;;;;;;;20.80;99.90;;;;;;5087198;28;19924;-69
2022/07/04 07:38:21;;;;;;;;;;;20.90;99.90;;;;;;5100209;28;20084;-69
2022/07/04 07:40:47;;;;;;;;;;;21.00;99.90;;;;;;5085964;28;19966;-69
2022/07/04 07:43:14;;;;;;;;;;;21.00;99.90;;;;;;5084001;28;19921;-69
2022/07/04 07:45:41;;;;;;;;;;;21.10;99.90;;;;;;5084303;28;19920;-68
2022/07/04 07:48:07;;;;;;;;;;;21.10;99.90;;;;;;5084113;28;19920;-68
2022/07/04 07:50:34;;;;;;;;;;;21.20;99.90;;;;;;5083258;28;19962;-69
2022/07/04 07:53:02;;;;;;;;;;;21.20;99.90;;;;;;5083563;28;20219;-69
2022/07/04 07:55:29;;;;;;;;;;;21.20;99.90;;;;;;5077954;28;19997;-69
2022/07/04 07:57:57;;;;;;;;;;;21.20;99.90;;;;;;5084497;28;19959;-69
2022/07/04 08:00:24;;;;;;;;;;;21.20;99.90;;;;;;5084031;28;19962;-69
2022/07/04 08:05:35;;;;;;;;;;;21.30;99.90;;;;;;5080639;28;19980;-70
2022/07/04 08:08:03;;;;;;;;;;;21.40;99.90;;;;;;5095681;28;19960;-70
2022/07/04 08:10:30;;;;;;;;;;;21.40;99.90;;;;;;5099120;28;19955;-70
2022/07/04 08:12:58;;;;;;;;;;;21.40;99.90;;;;;;5072079;28;19967;-70
2022/07/04 08:15:25;;;;;;;;;;;21.40;99.90;;;;;;5075792;28;19956;-68
2022/07/04 08:17:53;;;;;;;;;;;21.40;99.90;;;;;;5083928;28;19958;-69
2022/07/04 08:20:19;;;;;;;;;;;21.40;99.90;;;;;;5083554;28;19924;-69
2022/07/04 08:22:47;;;;;;;;;;;21.40;99.90;;;;;;5080912;28;19963;-69
2022/07/04 08:25:16;;;;;;;;;;;21.50;99.90;;;;;;5081030;28;19958;-69
2022/07/04 08:27:43;;;;;;;;;;;21.50;99.90;;;;;;5078506;28;20142;-69
2022/07/04 08:30:10;;;;;;;;;;;21.60;99.90;;;;;;5075302;28;19952;-68
2022/07/04 08:32:37;;;;;;;;;;;21.70;99.90;;;;;;5070428;28;19972;-68
2022/07/04 08:35:05;;;;;;;;;;;21.70;99.90;;;;;;5075923;28;19995;-69
2022/07/04 08:37:31;;;;;;;;;;;21.80;99.90;;;;;;5081936;28;19920;-68
2022/07/04 08:39:58;;;;;;;;;;;21.80;99.90;;;;;;5078147;28;19920;-69
2022/07/04 08:42:32;;;;;;;;;;;21.80;99.90;;;;;;5071409;28;19943;-68
2022/07/04 08:45:00;;;;;;;;;;;21.90;99.90;;;;;;5083041;28;19920;-69
2022/07/04 08:47:27;;;;;;;;;;;21.90;99.90;;;;;;5083111;28;20176;-69
2022/07/04 08:49:55;;;;;;;;;;;22.00;99.90;;;;;;5082679;28;19959;-68
2022/07/04 08:52:26;;;;;;;;;;;22.00;99.90;;;;;;5079852;28;19927;-70
2022/07/04 09:00:23;;;;;;;;;;;22.30;99.90;;;;;;5071223;28;19959;-71
2022/07/04 09:02:50;;;;;;;;;;;22.40;99.90;;;;;;5082894;28;19952;-69
2022/07/04 09:05:17;;;;;;;;;;;22.40;99.90;;;;;;5074556;28;20186;-71
2022/07/04 09:07:43;;;;;;;;;;;22.40;99.90;;;;;;5076925;28;19924;-71
2022/07/04 09:10:10;;;;;;;;;;;22.50;99.90;;;;;;5073059;28;20267;-70
2022/07/04 09:12:38;;;;;;;;;;;22.50;99.90;;;;;;5081166;28;19920;-71
2022/07/04 09:15:06;;;;;;;;;;;22.60;99.90;;;;;;5073572;28;19921;-70
2022/07/04 09:17:33;;;;;;;;;;;22.70;99.90;;;;;;5073063;28;19928;-70
2022/07/04 09:20:16;;;;;;;;;;;22.70;99.90;;;;;;5075381;28;19921;-70
2022/07/04 09:22:43;;;;;;;;;;;22.80;99.90;;;;;;5061750;28;19960;-69
2022/07/04 09:25:12;;;;;;;;;;;22.90;99.90;;;;;;5062293;28;19952;-70
2022/07/04 09:27:41;;;;;;;;;;;22.90;99.90;;;;;;5063008;28;19928;-70
2022/07/04 09:30:09;;;;;;;;;;;22.90;99.90;;;;;;5065206;28;19927;-69
2022/07/04 09:32:37;;;;;;;;;;;23.00;99.90;;;;;;5082332;28;19991;-69
2022/07/04 09:35:03;;;;;;;;;;;23.10;99.90;;;;;;5082652;28;19952;-69
2022/07/04 09:37:34;;;;;;;;;;;23.00;99.90;;;;;;5082832;28;19926;-70
2022/07/04 09:40:01;;;;;;;;;;;23.00;99.90;;;;;;5082979;28;19928;-69
2022/07/04 09:42:34;;;;;;;;;;;23.00;99.90;;;;;;5082363;28;19921;-69
2022/07/04 09:45:06;;;;;;;;;;;23.10;99.90;;;;;;5082471;28;20235;-69
2022/07/04 09:47:33;;;;;;;;;;;23.10;99.90;;;;;;5082486;28;19948;-67
2022/07/04 09:50:00;;;;;;;;;;;23.20;99.90;;;;;;5082939;28;20322;-70
2022/07/04 09:52:27;;;;;;;;;;;23.30;99.90;;;;;;5082227;28;20089;-69
2022/07/04 09:54:57;;;;;;;;;;;23.30;99.90;;;;;;5082095;28;19920;-69
2022/07/04 09:57:24;;;;;;;;;;;23.40;99.90;;;;;;5082792;28;19935;-69
2022/07/04 09:59:51;;;;;;;;;;;23.40;99.90;;;;;;5082337;28;19927;-69
2022/07/04 10:02:19;;;;;;;;;;;23.50;99.90;;;;;;5082019;28;19979;-70
2022/07/04 10:04:47;;;;;;;;;;;23.60;99.90;;;;;;5084613;28;19940;-70
2022/07/04 10:07:30;;;;;;;;;;;23.60;99.90;;;;;;5086416;28;19952;-68
2022/07/04 10:09:57;;;;;;;;;;;23.70;99.90;;;;;;5086154;28;19947;-70
2022/07/04 10:12:25;;;;;;;;;;;23.80;99.90;;;;;;5085495;28;19921;-70
2022/07/04 10:14:52;;;;;;;;;;;23.80;99.90;;;;;;5085671;28;19920;-69
2022/07/04 10:17:20;;;;;;;;;;;23.90;99.90;;;;;;5086030;28;19955;-70
2022/07/04 10:19:50;;;;;;;;;;;23.90;99.90;;;;;;5084227;28;19920;-70
2022/07/04 10:22:18;;;;;;;;;;;24.00;99.90;;;;;;5093087;28;19920;-69
2022/07/04 10:24:44;;;;;;;;;;;24.00;99.90;;;;;;5090425;28;19928;-69
2022/07/04 10:27:11;;;;;;;;;;;24.00;99.90;;;;;;5084063;28;19921;-70
2022/07/04 10:29:38;;;;;;;;;;;24.00;99.90;;;;;;5085200;28;19948;-68
2022/07/04 10:32:06;;;;;;;;;;;24.10;99.90;;;;;;5085705;28;19960;-69
2022/07/04 10:34:40;;;;;;;;;;;24.20;99.90;;;;;;5085373;28;20097;-70
2022/07/04 10:37:08;;;;;;;;;;;24.20;99.90;;;;;;5084981;28;19960;-69
2022/07/04 10:39:35;;;;;;;;;;;24.30;99.90;;;;;;5086095;28;19962;-70
2022/07/04 10:42:02;;;;;;;;;;;24.30;99.90;;;;;;5085921;28;19979;-72
2022/07/04 10:44:36;;;;;;;;;;;24.40;99.90;;;;;;5085284;28;19924;-70
2022/07/04 10:47:03;;;;;;;;;;;24.50;99.90;;;;;;5087148;28;19921;-70
2022/07/04 10:49:31;;;;;;;;;;;24.60;99.90;;;;;;5086769;28;19974;-71
2022/07/04 10:52:09;;;;;;;;;;;24.70;99.90;;;;;;5086853;28;19955;-70
2022/07/04 10:54:37;;;;;;;;;;;24.90;99.90;;;;;;5086125;28;19920;-71
2022/07/04 10:57:10;;;;;;;;;;;25.10;99.90;;;;;;5085780;28;19952;-71
2022/07/04 10:59:36;;;;;;;;;;;25.30;99.90;;;;;;5094053;28;19921;-70
2022/07/04 11:05:07;;;;;;;;;;;25.50;99.90;;;;;;5082265;28;19947;-70
2022/07/04 11:07:53;;;;;;;;;;;25.60;99.90;;;;;;5083935;28;20199;-70
2022/07/04 11:10:22;;;;;;;;;;;25.60;99.90;;;;;;5081481;28;19921;-69
2022/07/04 11:13:08;;;;;;;;;;;25.70;99.90;;;;;;5079620;28;20187;-72
2022/07/04 11:15:53;;;;;;;;;;;25.60;99.90;;;;;;5084455;28;20200;-70
2022/07/04 11:18:22;;;;;;;;;;;25.80;99.90;;;;;;5083342;28;19921;-70
2022/07/04 11:20:49;;;;;;;;;;;26.00;99.90;;;;;;5105532;22;19924;-92
2022/07/04 11:23:16;;;;;;;;;;;26.10;99.90;;;;;;5078702;28;19920;-92
2022/07/04 11:25:45;;;;;;;;;;;26.20;99.90;;;;;;5087037;28;19944;-92
2022/07/04 11:28:18;;;;;;;;;;;26.30;99.90;;;;;;5087668;28;20235;-92
2022/07/04 11:30:48;;;;;;;;;;;26.50;99.90;;;;;;5091507;28;19921;-92
2022/07/04 11:33:17;;;;;;;;;;;26.70;99.90;;;;;;5085566;28;19954;-91
2022/07/04 11:35:44;;;;;;;;;;;26.90;99.90;;;;;;5085199;28;20261;-90
2022/07/04 11:38:11;;;;;;;;;;;27.00;99.90;;;;;;5065149;28;19928;-89
2022/07/04 11:46:14;;;;;;;;;;;27.30;99.90;;;;;;5084990;28;19923;-89
2022/07/04 11:48:41;;;;;;;;;;;27.50;99.90;;;;;;5096316;28;19942;-89
2022/07/04 11:51:17;;;;;;;;;;;27.60;99.90;;;;;;5097293;28;19920;-89
2022/07/04 11:53:44;;;;;;;;;;;27.60;99.90;;;;;;5097809;28;19917;-87
2022/07/04 11:56:12;;;;;;;;;;;27.70;99.90;;;;;;5098244;28;19912;-87
2022/07/04 11:58:42;;;;;;;;;;;27.90;99.90;;;;;;5089666;28;19927;-91
2022/07/04 12:01:09;;;;;;;;;;;27.80;99.90;;;;;;5084666;28;19944;-90
2022/07/04 12:03:36;;;;;;;;;;;27.70;99.90;;;;;;5084612;28;19921;-91
2022/07/04 12:06:03;;;;;;;;;;;27.70;99.90;;;;;;5084073;28;19940;-90
2022/07/04 12:08:30;;;;;;;;;;;27.90;99.90;;;;;;5085842;28;19921;-91
2022/07/04 12:10:57;;;;;;;;;;;27.90;99.90;;;;;;5084558;28;19927;-90
2022/07/04 12:13:25;;;;;;;;;;;28.10;99.90;;;;;;5085014;28;19988;-91
2022/07/04 12:15:56;;;;;;;;;;;28.10;99.50;;;;;;5084111;28;22218;-90
2022/07/04 12:18:24;;;;;;;;;;;28.10;99.60;;;;;;5071941;28;20105;-92
2022/07/04 12:20:51;;;;;;;;;;;28.10;99.40;;;;;;5072707;28;19951;-94
2022/07/04 12:23:19;;;;;;;;;;;28.30;99.40;;;;;;5069758;28;19928;-89
2022/07/04 12:25:46;;;;;;;;;;;28.30;99.50;;;;;;5080606;28;19951;-92
2022/07/04 12:28:14;;;;;;;;;;;28.60;99.20;;;;;;5085045;28;19927;-92
2022/07/04 12:30:50;;;;;;;;;;;28.70;99.40;;;;;;5087835;28;19912;-93
2022/07/04 12:33:20;;;;;;;;;;;28.80;98.00;;;;;;5092076;28;19912;-92
2022/07/04 12:35:48;;;;;;;;;;;29.00;98.60;;;;;;5097515;28;19909;-93
2022/07/04 12:38:15;;;;;;;;;;;29.10;97.60;;;;;;5098281;28;19919;-93
2022/07/04 12:40:57;;;;;;;;;;;29.20;97.70;;;;;;5083156;28;19931;-94
2022/07/04 12:43:26;;;;;;;;;;;29.30;97.30;;;;;;5080959;28;19920;-93
2022/07/04 12:45:55;;;;;;;;;;;29.40;97.00;;;;;;5090440;28;19935;-92
2022/07/04 12:48:25;;;;;;;;;;;29.40;97.30;;;;;;5090460;28;19908;-90
2022/07/04 12:51:01;;;;;;;;;;;29.40;96.80;;;;;;5097722;28;19908;-94
2022/07/04 12:53:36;;;;;;;;;;;29.30;96.90;;;;;;5096242;22;19954;-66
2022/07/04 12:56:03;;;;;;;;;;;29.40;97.00;;;;;;5082932;28;19928;-66
2022/07/04 12:58:30;;;;;;;;;;;29.60;97.00;;;;;;5083080;28;20155;-66
2022/07/04 13:00:58;;;;;;;;;;;29.60;96.10;;;;;;5083502;28;20214;-66
2022/07/04 13:03:25;;;;;;;;;;;29.70;95.60;;;;;;5082282;28;20049;-65
2022/07/04 13:05:52;;;;;;;;;;;29.70;95.60;;;;;;5088351;28;19983;-66
2022/07/04 13:08:18;;;;;;;;;;;29.80;96.50;;;;;;5093320;28;19927;-66
2022/07/04 13:10:45;;;;;;;;;;;29.80;96.30;;;;;;5083093;28;19928;-66
2022/07/04 13:13:12;;;;;;;;;;;30.00;95.60;;;;;;5082734;28;19962;-66
2022/07/04 13:15:38;;;;;;;;;;;30.20;94.80;;;;;;5082626;28;19921;-66
2022/07/04 13:18:06;;;;;;;;;;;30.20;94.30;;;;;;5082638;28;19964;-66
2022/07/04 13:20:33;;;;;;;;;;;29.90;94.80;;;;;;5082869;28;20172;-66
2022/07/04 13:23:00;;;;;;;;;;;29.80;94.90;;;;;;5082583;28;19966;-66
2022/07/04 13:25:26;;;;;;;;;;;29.90;94.60;;;;;;5082980;28;19980;-66
2022/07/04 13:27:53;;;;;;;;;;;29.90;94.90;;;;;;5082903;28;19952;-65
2022/07/04 13:30:20;;;;;;;;;;;29.50;95.10;;;;;;5081593;28;19935;-66
2022/07/04 13:32:46;;;;;;;;;;;29.50;95.50;;;;;;5079762;28;19935;-65
2022/07/04 13:35:14;;;;;;;;;;;29.60;95.30;;;;;;5079246;28;20247;-65
2022/07/04 13:37:42;;;;;;;;;;;29.50;95.00;;;;;;5072050;28;20288;-64
2022/07/04 13:40:09;;;;;;;;;;;29.50;95.00;;;;;;5084842;28;19927;-64
2022/07/04 13:45:20;;;;;;;;;;;30.10;95.20;;;;;;5083604;28;19999;-64
2022/07/04 13:47:47;;;;;;;;;;;29.80;94.10;;;;;;5084367;28;19963;-65
2022/07/04 13:50:15;;;;;;;;;;;29.60;94.40;;;;;;5082036;28;20303;-65
2022/07/04 13:52:42;;;;;;;;;;;29.40;94.80;;;;;;5087024;28;19952;-66
2022/07/04 13:55:08;;;;;;;;;;;29.40;94.40;;;;;;5083779;28;20032;-66
2022/07/04 13:57:36;;;;;;;;;;;29.40;94.00;;;;;;5072186;28;19956;-66
2022/07/04 14:00:04;;;;;;;;;;;29.40;94.50;;;;;;5075495;28;20203;-66
2022/07/04 14:02:30;;;;;;;;;;;29.30;93.70;;;;;;5085857;28;19928;-66
2022/07/04 14:04:57;;;;;;;;;;;29.20;93.70;;;;;;5067739;28;19992;-66
2022/07/04 14:07:25;;;;;;;;;;;29.30;94.20;;;;;;5085547;28;20267;-66
2022/07/04 14:09:52;;;;;;;;;;;29.50;93.80;;;;;;5085440;28;20097;-66
2022/07/04 14:12:18;;;;;;;;;;;29.60;92.80;;;;;;5085598;28;19952;-66
2022/07/04 14:14:45;;;;;;;;;;;29.40;93.20;;;;;;5086130;28;19963;-65
2022/07/04 14:17:12;;;;;;;;;;;29.10;93.10;;;;;;5086103;28;19948;-66
2022/07/04 14:19:38;;;;;;;;;;;28.90;93.60;;;;;;5085995;28;19920;-66
2022/07/04 14:22:05;;;;;;;;;;;29.10;93.50;;;;;;5085925;28;20202;-66
2022/07/04 14:24:33;;;;;;;;;;;29.30;92.20;;;;;;5085085;28;19948;-66
2022/07/04 14:27:01;;;;;;;;;;;29.60;92.00;;;;;;5085412;28;19987;-66
2022/07/04 14:29:28;;;;;;;;;;;29.60;91.70;;;;;;5085576;28;19927;-66
2022/07/04 14:31:54;;;;;;;;;;;29.70;91.20;;;;;;5085888;28;19982;-66
2022/07/04 14:34:21;;;;;;;;;;;29.80;90.60;;;;;;5085817;28;19970;-66
2022/07/04 14:36:48;;;;;;;;;;;29.80;91.50;;;;;;5085929;28;19948;-67
2022/07/04 14:39:14;;;;;;;;;;;30.00;91.30;;;;;;5085859;28;19921;-66
2022/07/04 14:41:41;;;;;;;;;;;30.30;90.30;;;;;;5085505;28;19928;-66
2022/07/04 14:44:09;;;;;;;;;;;30.20;90.90;;;;;;5084361;28;20232;-66
2022/07/04 14:46:36;;;;;;;;;;;30.00;91.60;;;;;;5085261;28;19920;-66
2022/07/04 14:49:02;;;;;;;;;;;30.00;91.90;;;;;;5084674;28;19951;-66